Time;durP1;ratioP1;P1;durP2;ratioP2;P2;SDS_P1;SDS_P2;PMS_P1;PMS_P2;Temp;Humidity;BMP_temperature;BMP_pressure;BME280_temperature;BME280_humidity;BME280_pressure;Samples;Min_cycle;Max_cycle;Signal;HPM_P1;HPM_P2
2022/08/21 00:08:40;;;;;;;6.22;2.22;;;;;;;17.16;70.63;100444.28;20752785;28;20046;-73
2022/08/21 00:18:41;;;;;;;7.20;2.20;;;;;;;17.33;69.71;100451.50;20746116;28;20494;-73
2022/08/21 00:28:43;;;;;;;4.57;2.10;;;;;;;17.32;69.41;100434.75;20746660;28;20052;-72
2022/08/21 00:38:44;;;;;;;5.70;2.30;;;;;;;17.13;70.67;100434.66;20747214;28;20054;-73
2022/08/21 00:48:45;;;;;;;6.85;2.17;;;;;;;17.03;71.45;100427.19;20743156;28;20054;-72
2022/08/21 00:58:47;;;;;;;8.93;2.70;;;;;;;16.98;70.64;100426.53;20746520;28;20489;-73
2022/08/21 01:08:55;;;;;;;5.05;2.20;;;;;;;16.84;72.50;100433.25;20744889;28;20054;-73
2022/08/21 01:18:56;;;;;;;5.38;2.50;;;;;;;16.68;74.17;100427.69;20745324;28;20146;-73
2022/08/21 01:28:57;;;;;;;6.70;2.42;;;;;;;16.34;77.14;100422.03;20746072;28;20088;-73
2022/08/21 01:38:59;;;;;;;6.18;2.80;;;;;;;16.24;77.52;100420.66;20746551;28;20124;-72
2022/08/21 01:49:00;;;;;;;7.22;2.80;;;;;;;16.12;79.10;100428.13;20745311;28;20060;-73
2022/08/21 01:59:02;;;;;;;6.93;2.60;;;;;;;16.12;78.62;100419.34;20753916;28;20073;-73
2022/08/21 02:09:03;;;;;;;8.15;2.70;;;;;;;15.87;81.43;100417.63;20751854;28;20050;-73
2022/08/21 02:19:04;;;;;;;11.48;3.05;;;;;;;15.72;84.90;100406.78;20751098;28;20446;-72
2022/08/21 02:29:06;;;;;;;7.50;3.10;;;;;;;15.67;85.38;100409.59;20752949;28;20085;-72
2022/08/21 02:39:07;;;;;;;7.13;2.90;;;;;;;15.60;86.88;100401.00;20750262;28;20140;-72
2022/08/21 02:49:08;;;;;;;7.25;2.90;;;;;;;15.47;86.59;100402.34;20747336;28;20049;-74
2022/08/21 02:59:10;;;;;;;4.70;2.60;;;;;;;15.40;87.04;100412.25;20747598;28;20054;-73
2022/08/21 03:09:11;;;;;;;7.18;2.70;;;;;;;15.17;89.86;100408.72;20744082;28;20054;-73
2022/08/21 03:19:13;;;;;;;10.57;3.88;;;;;;;15.08;91.16;100405.47;20745326;28;20057;-72
2022/08/21 03:29:14;;;;;;;6.75;3.45;;;;;;;15.13;90.28;100408.81;20744001;28;20069;-73
2022/08/21 03:39:15;;;;;;;7.68;3.20;;;;;;;14.99;90.10;100404.91;20742948;28;20418;-73
2022/08/21 03:49:17;;;;;;;7.35;3.30;;;;;;;14.82;92.63;100416.91;20742261;28;20056;-73
2022/08/21 03:59:18;;;;;;;7.15;3.25;;;;;;;14.62;95.48;100417.56;20742194;28;20491;-72
2022/08/21 04:09:20;;;;;;;8.63;3.40;;;;;;;14.60;96.15;100424.63;20822435;23;20060;-74
2022/08/21 04:19:21;;;;;;;8.20;3.97;;;;;;;14.47;99.53;100428.53;20819804;28;20049;-73
2022/08/21 04:29:22;;;;;;;7.32;3.30;;;;;;;14.45;100.00;100434.75;20822372;28;20068;-73
2022/08/21 04:39:24;;;;;;;9.23;3.97;;;;;;;14.51;100.00;100445.13;20818367;28;20398;-74
2022/08/21 04:49:31;;;;;;;8.13;3.97;;;;;;;14.53;100.00;100460.00;20818071;28;20052;-73
2022/08/21 04:59:32;;;;;;;7.65;3.58;;;;;;;14.53;100.00;100470.53;20817844;28;20054;-72
2022/08/21 05:09:33;;;;;;;7.90;3.58;;;;;;;14.68;99.56;100471.81;20816967;28;20514;-73
2022/08/21 05:19:35;;;;;;;7.28;3.60;;;;;;;14.90;98.97;100464.09;20816979;28;20053;-72
2022/08/21 05:29:36;;;;;;;11.85;4.07;;;;;;;15.38;100.00;100476.56;20821345;28;20053;-73
2022/08/21 05:39:37;;;;;;;6.60;3.63;;;;;;;15.72;100.00;100470.16;20829183;28;20065;-73
2022/08/21 05:49:59;;;;;;;9.70;4.35;;;;;;;15.83;100.00;100465.34;20830028;28;20099;-73
2022/08/21 06:00:00;;;;;;;9.63;4.40;;;;;;;16.00;100.00;100472.63;20829500;28;20076;-73
2022/08/21 06:10:01;;;;;;;6.88;3.90;;;;;;;16.26;100.00;100485.72;20828499;28;20081;-74
2022/08/21 06:20:03;;;;;;;10.23;4.40;;;;;;;16.62;100.00;100475.53;20827183;28;20046;-72
2022/08/21 06:30:04;;;;;;;12.07;4.80;;;;;;;16.83;100.00;100489.72;20824841;28;20059;-73
2022/08/21 06:40:06;;;;;;;11.90;4.07;;;;;;;17.19;100.00;100482.03;20827095;28;20144;-72
2022/08/21 06:50:13;;;;;;;11.40;3.95;;;;;;;17.40;94.12;100485.59;20826208;28;20053;-71
2022/08/21 07:00:14;;;;;;;8.73;3.25;;;;;;;17.75;88.00;100474.41;20824632;28;20045;-72
2022/08/21 07:10:15;;;;;;;7.38;3.13;;;;;;;17.93;84.96;100485.06;20824526;28;20724;-72
2022/08/21 07:20:22;;;;;;;7.38;2.97;;;;;;;18.19;80.40;100477.72;20862472;28;20045;-72
2022/08/21 07:30:24;;;;;;;9.63;3.15;;;;;;;18.62;76.34;100468.59;20880062;28;20145;-73
2022/08/21 07:40:25;;;;;;;7.25;3.13;;;;;;;18.79;73.58;100454.56;20879401;28;20049;-72
2022/08/21 07:50:27;;;;;;;7.18;2.90;;;;;;;19.28;69.92;100451.25;20869482;28;20053;-73
2022/08/21 08:00:28;;;;;;;9.32;3.15;;;;;;;19.38;68.21;100457.81;20853064;28;20534;-72
2022/08/21 08:10:29;;;;;;;9.70;3.08;;;;;;;19.92;65.70;100451.44;20847332;28;20068;-72
2022/08/21 08:20:31;;;;;;;7.13;2.67;;;;;;;20.27;63.85;100442.50;20885324;28;20049;-73
2022/08/21 08:30:32;;;;;;;11.65;3.50;;;;;;;20.71;57.11;100427.59;20900648;28;20041;-73
2022/08/21 08:40:35;;;;;;;7.68;2.90;;;;;;;21.05;56.81;100419.44;20893406;28;20052;-74
2022/08/21 08:50:38;;;;;;;9.57;4.10;;;;;;;21.30;55.51;100403.72;20900205;28;20052;-74
2022/08/21 09:00:39;;;;;;;8.38;3.05;;;;;;;21.85;54.18;100402.19;20898604;28;20049;-74
2022/08/21 09:10:42;;;;;;;10.45;3.10;;;;;;;22.18;50.88;100384.09;20914639;28;20517;-74
2022/08/21 09:20:43;;;;;;;10.00;2.95;;;;;;;22.76;50.59;100372.25;20915501;28;20049;-74
2022/08/21 09:30:44;;;;;;;7.28;3.20;;;;;;;22.99;47.03;100356.50;20914386;28;20057;-74
2022/08/21 09:40:46;;;;;;;8.18;2.75;;;;;;;23.58;45.23;100354.19;20913728;28;20061;-74
2022/08/21 09:50:47;;;;;;;9.10;3.22;;;;;;;23.55;42.44;100360.59;20913046;28;20053;-73
2022/08/21 10:00:48;;;;;;;7.75;2.70;;;;;;;23.95;42.57;100356.94;20912259;28;20047;-73
2022/08/21 10:10:50;;;;;;;8.90;2.85;;;;;;;24.34;43.45;100353.19;20872027;23;20049;-74
2022/08/21 10:20:56;;;;;;;8.23;3.17;;;;;;;23.90;42.56;100335.03;20837775;28;20053;-72
2022/08/21 10:30:58;;;;;;;8.45;2.80;;;;;;;24.89;42.38;100321.44;20840271;28;20144;-72
2022/08/21 10:40:59;;;;;;;7.82;3.35;;;;;;;24.92;42.27;100313.19;20851246;28;20578;-72
2022/08/21 10:51:01;;;;;;;9.60;3.20;;;;;;;25.54;40.60;100307.44;20838181;28;20061;-72
2022/08/21 11:01:02;;;;;;;10.40;2.85;;;;;;;25.10;39.57;100309.09;20834167;28;20052;-73
2022/08/21 11:11:04;;;;;;;9.57;3.10;;;;;;;25.59;38.84;100289.16;20830027;28;20077;-72
2022/08/21 11:21:08;;;;;;;9.30;3.67;;;;;;;24.91;39.48;100287.34;20829272;28;20136;-72
2022/08/21 11:31:12;;;;;;;8.88;3.28;;;;;;;25.12;38.65;100276.84;20826622;28;20516;-72
2022/08/21 11:41:13;;;;;;;10.23;3.30;;;;;;;25.78;37.92;100257.22;20827858;28;20057;-72
2022/08/21 11:51:14;;;;;;;8.88;3.30;;;;;;;25.68;37.70;100244.63;20824844;28;20053;-72
2022/08/21 12:01:16;;;;;;;9.43;3.10;;;;;;;25.90;37.62;100243.75;20821732;28;20057;-74
2022/08/21 12:11:17;;;;;;;6.47;2.80;;;;;;;26.20;37.03;100243.91;20822255;28;20060;-75
2022/08/21 12:21:19;;;;;;;7.22;2.67;;;;;;;26.02;36.17;100229.34;20819577;28;20615;-74
2022/08/21 12:31:20;;;;;;;8.75;2.90;;;;;;;26.16;34.49;100218.31;20820152;28;20059;-72
2022/08/21 12:41:22;;;;;;;7.30;2.45;;;;;;;25.89;35.03;100226.81;20819545;28;20045;-73
2022/08/21 12:51:23;;;;;;;6.25;2.40;;;;;;;26.20;34.04;100206.31;20819943;28;20050;-75
2022/08/21 13:01:25;;;;;;;9.48;2.85;;;;;;;26.32;33.29;100212.50;20818767;28;20073;-74
2022/08/21 13:11:26;;;;;;;7.95;2.33;;;;;;;26.28;33.20;100206.53;20817909;28;20053;-71
2022/08/21 13:21:34;;;;;;;5.90;2.35;;;;;;;26.53;31.36;100188.38;20818401;28;20050;-72
2022/08/21 13:31:35;;;;;;;6.57;2.50;;;;;;;26.50;33.18;100188.66;20818063;28;20060;-72
2022/08/21 13:41:36;;;;;;;6.13;2.22;;;;;;;26.80;32.61;100180.63;20817521;28;20053;-71
2022/08/21 13:51:38;;;;;;;5.90;2.33;;;;;;;26.63;32.23;100170.47;20820732;28;20053;-77
2022/08/21 14:01:39;;;;;;;9.73;2.70;;;;;;;26.42;32.06;100158.88;20831250;28;20080;-77
2022/08/21 14:11:41;;;;;;;8.02;2.40;;;;;;;26.69;32.14;100153.84;20832581;28;20494;-76
2022/08/21 14:21:48;;;;;;;5.18;2.15;;;;;;;26.98;31.59;100139.69;20830664;28;20057;-75
2022/08/21 14:31:50;;;;;;;5.75;2.47;;;;;;;27.20;30.75;100139.50;20828093;28;20620;-74
2022/08/21 14:41:51;;;;;;;6.45;2.70;;;;;;;27.18;30.05;100125.38;20841791;28;20055;-73
2022/08/21 14:51:56;;;;;;;6.80;2.80;;;;;;;27.20;30.35;100115.31;20909279;28;20059;-73
2022/08/21 15:01:58;;;;;;;6.68;2.50;;;;;;;27.17;30.10;100102.16;20908085;28;20069;-74
2022/08/21 15:11:59;;;;;;;7.35;3.05;;;;;;;26.99;30.52;100093.88;20909445;28;20071;-75
2022/08/21 15:22:01;;;;;;;5.50;2.33;;;;;;;27.07;30.24;100095.88;20910025;28;20078;-80
2022/08/21 15:32:02;;;;;;;6.53;2.40;;;;;;;27.43;29.41;100091.72;20908726;28;20041;-74
2022/08/21 15:42:04;;;;;;;4.07;2.17;;;;;;;27.40;29.05;100089.31;20907311;28;20049;-75
2022/08/21 15:52:10;;;;;;;4.82;2.28;;;;;;;27.32;27.74;100079.28;20906380;28;20143;-76
2022/08/21 16:02:12;;;;;;;6.45;2.55;;;;;;;27.23;26.64;100071.19;20891741;28;20461;-75
2022/08/21 16:12:13;;;;;;;6.22;2.67;;;;;;;27.23;29.74;100069.34;20948091;23;20059;-72
2022/08/21 16:22:14;;;;;;;6.35;2.60;;;;;;;27.39;29.58;100065.25;20844814;28;20056;-70
2022/08/21 16:32:16;;;;;;;5.40;1.90;;;;;;;27.23;25.64;100049.69;20888844;28;20052;-69
2022/08/21 16:42:17;;;;;;;5.90;2.47;;;;;;;27.43;23.94;100046.00;20761319;28;20060;-70
2022/08/21 16:52:22;;;;;;;5.55;2.10;;;;;;;27.53;23.64;100041.47;20730190;28;20495;-71
2022/08/21 17:02:24;;;;;;;5.78;2.35;;;;;;;27.38;25.62;100037.53;20729191;28;20061;-70
2022/08/21 17:12:25;;;;;;;5.20;1.83;;;;;;;27.10;28.03;100039.19;20779126;28;20053;-70
2022/08/21 17:22:26;;;;;;;6.03;2.25;;;;;;;26.41;30.05;100031.00;20893053;28;20485;-70
2022/08/21 17:32:28;;;;;;;5.20;2.28;;;;;;;26.03;30.98;100045.91;20835556;28;20053;-70
2022/08/21 17:42:29;;;;;;;5.03;2.25;;;;;;;25.50;31.99;100043.25;20778783;28;20260;-70
2022/08/21 17:52:30;;;;;;;5.22;2.20;;;;;;;25.07;34.58;100044.13;20742243;28;20049;-71
2022/08/21 18:02:32;;;;;;;6.00;2.67;;;;;;;24.71;36.07;100040.72;20741138;28;20520;-71
2022/08/21 18:12:33;;;;;;;6.45;2.47;;;;;;;24.43;36.92;100057.28;20799455;28;20053;-69
2022/08/21 18:22:35;;;;;;;8.52;3.08;;;;;;;23.95;38.10;100054.72;20901844;28;20057;-70
2022/08/21 18:32:36;;;;;;;5.38;2.55;;;;;;;23.51;39.89;100062.47;20902145;28;20057;-69
2022/08/21 18:42:37;;;;;;;6.63;2.50;;;;;;;23.04;41.34;100082.00;20902753;28;20486;-70
2022/08/21 18:52:39;;;;;;;6.07;2.30;;;;;;;22.47;44.59;100082.47;20901236;28;20063;-71
2022/08/21 19:02:53;;;;;;;4.90;2.33;;;;;;;22.15;45.28;100098.06;20900809;28;20466;-69
2022/08/21 19:12:54;;;;;;;5.32;2.70;;;;;;;21.97;46.57;100097.47;20870608;28;20056;-70
2022/08/21 19:22:55;;;;;;;5.90;2.55;;;;;;;21.60;48.09;100105.25;20815704;28;20140;-70
2022/08/21 19:32:57;;;;;;;6.70;2.67;;;;;;;21.37;48.53;100108.59;20813586;28;20107;-69
2022/08/21 19:43:00;;;;;;;5.57;2.65;;;;;;;21.02;49.48;100117.84;20814663;28;20434;-69
2022/08/21 19:53:01;;;;;;;5.78;2.50;;;;;;;20.73;49.92;100114.38;20813610;28;20413;-67
2022/08/21 20:03:03;;;;;;;8.52;2.97;;;;;;;20.70;50.11;100111.91;20813011;28;20069;-68
2022/08/21 20:13:07;;;;;;;5.50;2.40;;;;;;;20.45;51.32;100112.50;20843779;28;20061;-68
2022/08/21 20:23:09;;;;;;;5.40;2.53;;;;;;;20.33;51.68;100112.44;20894445;28;20490;-68
2022/08/21 20:33:11;;;;;;;7.03;2.78;;;;;;;20.21;52.26;100111.34;20892948;28;20059;-68
2022/08/21 20:43:12;;;;;;;6.93;2.95;;;;;;;20.14;53.02;100125.97;20892181;28;20926;-68
2022/08/21 20:53:13;;;;;;;7.72;3.33;;;;;;;19.94;53.43;100124.50;20894005;28;20049;-70
2022/08/21 21:03:15;;;;;;;5.53;2.78;;;;;;;19.65;54.84;100124.41;20904470;28;20045;-68
2022/08/21 21:13:16;;;;;;;9.40;3.45;;;;;;;19.51;55.42;100121.63;20877367;28;20568;-69
2022/08/21 21:23:17;;;;;;;9.10;3.60;;;;;;;19.30;56.40;100121.03;20826673;28;20148;-70
2022/08/21 21:33:19;;;;;;;5.90;2.95;;;;;;;18.96;57.77;100130.88;20825389;28;20097;-70
2022/08/21 21:43:20;;;;;;;10.32;3.05;;;;;;;18.84;58.52;100138.66;20824650;28;20061;-70
2022/08/21 21:53:21;;;;;;;6.65;2.75;;;;;;;18.76;59.19;100135.56;20824644;28;20056;-70
2022/08/21 22:03:24;;;;;;;5.82;2.83;;;;;;;18.65;58.63;100134.31;20824579;28;20049;-69
2022/08/21 22:13:26;;;;;;;7.35;3.05;;;;;;;18.49;60.22;100144.00;20828098;28;20123;-68
2022/08/21 22:23:28;;;;;;;6.07;2.95;;;;;;;18.42;60.08;100138.16;20826455;28;20049;-67
2022/08/21 22:33:29;;;;;;;6.82;2.92;;;;;;;18.36;61.02;100137.63;20819468;28;20131;-69
2022/08/21 22:43:30;;;;;;;8.77;3.30;;;;;;;18.21;61.62;100144.59;20753884;28;20052;-69
2022/08/21 22:53:32;;;;;;;6.95;3.20;;;;;;;18.19;62.18;100152.59;20743883;28;20084;-68
2022/08/21 23:03:34;;;;;;;8.00;3.67;;;;;;;18.27;62.27;100146.06;20742645;28;20077;-68
2022/08/21 23:13:37;;;;;;;7.85;3.17;;;;;;;17.58;67.06;100166.25;20742310;28;20153;-68
2022/08/21 23:23:38;;;;;;;9.15;3.50;;;;;;;17.74;67.20;100162.88;20740403;28;20050;-68
2022/08/21 23:33:40;;;;;;;9.45;3.20;;;;;;;17.70;67.49;100160.31;20740433;28;20049;-68
2022/08/21 23:43:41;;;;;;;6.88;3.40;;;;;;;17.70;67.81;100170.06;20740337;28;20054;-68
2022/08/21 23:53:43;;;;;;;7.93;3.20;;;;;;;17.60;68.04;100169.66;20739083;28;20053;-68
